sensor_id;sensor_type;location;lat;lon;timestamp;temperature;humidity
5806;DHT22;2929;50.810;8.342;2023-07-22T00:00:04;9.60;99.90
5806;DHT22;2929;50.810;8.342;2023-07-22T00:02:34;9.40;99.90
5806;DHT22;2929;50.810;8.342;2023-07-22T00:05:01;9.40;99.90
5806;DHT22;2929;50.810;8.342;2023-07-22T00:07:31;9.30;99.90
5806;DHT22;2929;50.810;8.342;2023-07-22T00:09:57;9.40;99.90
5806;DHT22;2929;50.810;8.342;2023-07-22T00:12:25;9.50;99.90
5806;DHT22;2929;50.810;8.342;2023-07-22T00:14:52;9.40;99.90
5806;DHT22;2929;50.810;8.342;2023-07-22T00:17:19;9.40;99.90
5806;DHT22;2929;50.810;8.342;2023-07-22T00:19:47;9.30;99.90
5806;DHT22;2929;50.810;8.342;2023-07-22T00:22:14;9.30;99.90
5806;DHT22;2929;50.810;8.342;2023-07-22T00:24:43;9.20;99.90
5806;DHT22;2929;50.810;8.342;2023-07-22T00:27:10;9.20;99.90
5806;DHT22;2929;50.810;8.342;2023-07-22T00:29:37;9.20;99.90
5806;DHT22;2929;50.810;8.342;2023-07-22T00:32:07;9.20;99.90
5806;DHT22;2929;50.810;8.342;2023-07-22T00:34:35;9.10;99.90
5806;DHT22;2929;50.810;8.342;2023-07-22T00:37:02;9.00;99.90
5806;DHT22;2929;50.810;8.342;2023-07-22T00:39:29;9.00;99.90
5806;DHT22;2929;50.810;8.342;2023-07-22T00:41:57;9.00;99.90
5806;DHT22;2929;50.810;8.342;2023-07-22T00:44:24;9.00;99.90
5806;DHT22;2929;50.810;8.342;2023-07-22T00:46:53;9.00;99.90
5806;DHT22;2929;50.810;8.342;2023-07-22T00:49:21;8.90;99.90
5806;DHT22;2929;50.810;8.342;2023-07-22T00:51:48;8.70;99.90
5806;DHT22;2929;50.810;8.342;2023-07-22T00:54:15;8.70;99.90
5806;DHT22;2929;50.810;8.342;2023-07-22T00:56:43;8.70;99.90
5806;DHT22;2929;50.810;8.342;2023-07-22T00:59:12;8.60;99.90
5806;DHT22;2929;50.810;8.342;2023-07-22T01:01:40;8.50;99.90
5806;DHT22;2929;50.810;8.342;2023-07-22T01:04:07;8.50;99.90
5806;DHT22;2929;50.810;8.342;2023-07-22T01:06:35;8.50;99.90
5806;DHT22;2929;50.810;8.342;2023-07-22T01:09:05;8.40;99.90
5806;DHT22;2929;50.810;8.342;2023-07-22T01:11:36;8.40;99.90
5806;DHT22;2929;50.810;8.342;2023-07-22T01:14:03;8.40;99.90
5806;DHT22;2929;50.810;8.342;2023-07-22T01:16:32;8.40;99.90
5806;DHT22;2929;50.810;8.342;2023-07-22T01:18:59;8.40;99.90
5806;DHT22;2929;50.810;8.342;2023-07-22T01:21:27;8.40;99.90
5806;DHT22;2929;50.810;8.342;2023-07-22T01:23:56;8.40;99.90
5806;DHT22;2929;50.810;8.342;2023-07-22T01:26:23;8.30;99.90
5806;DHT22;2929;50.810;8.342;2023-07-22T01:28:50;8.30;99.90
5806;DHT22;2929;50.810;8.342;2023-07-22T01:31:17;8.40;99.90
5806;DHT22;2929;50.810;8.342;2023-07-22T01:33:43;8.50;99.90
5806;DHT22;2929;50.810;8.342;2023-07-22T01:36:10;8.40;99.90
5806;DHT22;2929;50.810;8.342;2023-07-22T01:38:38;8.50;99.90
5806;DHT22;2929;50.810;8.342;2023-07-22T01:41:06;8.50;99.90
5806;DHT22;2929;50.810;8.342;2023-07-22T01:43:33;8.50;99.90
5806;DHT22;2929;50.810;8.342;2023-07-22T01:46:00;8.50;99.90
5806;DHT22;2929;50.810;8.342;2023-07-22T01:48:27;8.50;99.90
5806;DHT22;2929;50.810;8.342;2023-07-22T01:50:54;8.50;99.90
5806;DHT22;2929;50.810;8.342;2023-07-22T01:53:21;8.50;99.90
5806;DHT22;2929;50.810;8.342;2023-07-22T01:55:48;8.50;99.90
5806;DHT22;2929;50.810;8.342;2023-07-22T01:58:16;8.60;99.90
5806;DHT22;2929;50.810;8.342;2023-07-22T02:00:43;8.60;99.90
5806;DHT22;2929;50.810;8.342;2023-07-22T02:03:10;8.60;99.90
5806;DHT22;2929;50.810;8.342;2023-07-22T02:05:36;8.70;99.90
5806;DHT22;2929;50.810;8.342;2023-07-22T02:08:04;8.80;99.90
5806;DHT22;2929;50.810;8.342;2023-07-22T02:10:31;8.70;99.90
5806;DHT22;2929;50.810;8.342;2023-07-22T02:12:58;8.60;99.90
5806;DHT22;2929;50.810;8.342;2023-07-22T02:15:26;8.70;99.90
5806;DHT22;2929;50.810;8.342;2023-07-22T02:17:53;8.60;99.90
5806;DHT22;2929;50.810;8.342;2023-07-22T02:20:21;8.60;99.90
5806;DHT22;2929;50.810;8.342;2023-07-22T02:22:47;8.70;99.90
5806;DHT22;2929;50.810;8.342;2023-07-22T02:25:14;8.70;99.90
5806;DHT22;2929;50.810;8.342;2023-07-22T02:27:41;8.70;99.90
5806;DHT22;2929;50.810;8.342;2023-07-22T02:30:09;8.70;99.90
5806;DHT22;2929;50.810;8.342;2023-07-22T02:32:39;8.70;99.90
5806;DHT22;2929;50.810;8.342;2023-07-22T02:35:06;8.70;99.90
5806;DHT22;2929;50.810;8.342;2023-07-22T02:37:35;8.70;99.90
5806;DHT22;2929;50.810;8.342;2023-07-22T02:40:02;8.70;99.90
5806;DHT22;2929;50.810;8.342;2023-07-22T02:42:35;8.60;99.90
5806;DHT22;2929;50.810;8.342;2023-07-22T02:45:02;8.60;99.90
5806;DHT22;2929;50.810;8.342;2023-07-22T02:47:29;8.60;99.90
5806;DHT22;2929;50.810;8.342;2023-07-22T02:49:58;8.70;99.90
5806;DHT22;2929;50.810;8.342;2023-07-22T02:52:25;8.70;99.90
5806;DHT22;2929;50.810;8.342;2023-07-22T02:55:06;8.70;99.90
5806;DHT22;2929;50.810;8.342;2023-07-22T02:57:34;8.70;99.90
5806;DHT22;2929;50.810;8.342;2023-07-22T03:00:01;8.60;99.90
5806;DHT22;2929;50.810;8.342;2023-07-22T03:02:32;8.70;99.90
5806;DHT22;2929;50.810;8.342;2023-07-22T03:05:01;8.70;99.90
5806;DHT22;2929;50.810;8.342;2023-07-22T03:07:31;8.80;99.90
5806;DHT22;2929;50.810;8.342;2023-07-22T03:09:58;8.70;99.90
5806;DHT22;2929;50.810;8.342;2023-07-22T03:12:25;8.70;99.90
5806;DHT22;2929;50.810;8.342;2023-07-22T03:14:53;8.60;99.90
5806;DHT22;2929;50.810;8.342;2023-07-22T03:17:20;8.50;99.90
5806;DHT22;2929;50.810;8.342;2023-07-22T03:19:47;8.30;99.90
5806;DHT22;2929;50.810;8.342;2023-07-22T03:22:15;8.30;99.90
5806;DHT22;2929;50.810;8.342;2023-07-22T03:24:42;8.30;99.90
5806;DHT22;2929;50.810;8.342;2023-07-22T03:27:10;8.40;99.90
5806;DHT22;2929;50.810;8.342;2023-07-22T03:29:37;8.40;99.90
5806;DHT22;2929;50.810;8.342;2023-07-22T03:32:05;8.40;99.90
5806;DHT22;2929;50.810;8.342;2023-07-22T03:34:32;8.40;99.90
5806;DHT22;2929;50.810;8.342;2023-07-22T03:36:59;8.30;99.90
5806;DHT22;2929;50.810;8.342;2023-07-22T03:39:27;8.30;99.90
5806;DHT22;2929;50.810;8.342;2023-07-22T03:41:54;8.40;99.90
5806;DHT22;2929;50.810;8.342;2023-07-22T03:44:21;8.40;99.90
5806;DHT22;2929;50.810;8.342;2023-07-22T03:46:48;8.50;99.90
5806;DHT22;2929;50.810;8.342;2023-07-22T03:49:15;8.70;99.90
5806;DHT22;2929;50.810;8.342;2023-07-22T03:51:42;8.70;99.90
5806;DHT22;2929;50.810;8.342;2023-07-22T03:54:08;8.70;99.90
5806;DHT22;2929;50.810;8.342;2023-07-22T03:56:39;8.60;99.90
5806;DHT22;2929;50.810;8.342;2023-07-22T03:59:06;8.70;99.90
5806;DHT22;2929;50.810;8.342;2023-07-22T04:01:33;8.60;99.90
5806;DHT22;2929;50.810;8.342;2023-07-22T04:04:00;8.60;99.90
5806;DHT22;2929;50.810;8.342;2023-07-22T04:06:27;8.50;99.90
5806;DHT22;2929;50.810;8.342;2023-07-22T04:08:54;8.50;99.90
5806;DHT22;2929;50.810;8.342;2023-07-22T04:11:21;8.50;99.90
5806;DHT22;2929;50.810;8.342;2023-07-22T04:13:49;8.50;99.90
5806;DHT22;2929;50.810;8.342;2023-07-22T04:16:16;8.50;99.90
5806;DHT22;2929;50.810;8.342;2023-07-22T04:18:43;8.50;99.90
5806;DHT22;2929;50.810;8.342;2023-07-22T04:21:11;8.60;99.90
5806;DHT22;2929;50.810;8.342;2023-07-22T04:23:37;8.60;99.90
5806;DHT22;2929;50.810;8.342;2023-07-22T04:26:05;8.60;99.90
5806;DHT22;2929;50.810;8.342;2023-07-22T04:28:33;8.60;99.90
5806;DHT22;2929;50.810;8.342;2023-07-22T04:31:01;8.70;99.90
5806;DHT22;2929;50.810;8.342;2023-07-22T04:33:28;8.80;99.90
5806;DHT22;2929;50.810;8.342;2023-07-22T04:35:57;8.70;99.90
5806;DHT22;2929;50.810;8.342;2023-07-22T04:38:24;8.70;99.90
5806;DHT22;2929;50.810;8.342;2023-07-22T04:40:51;8.60;99.90
5806;DHT22;2929;50.810;8.342;2023-07-22T04:43:18;8.60;99.90
5806;DHT22;2929;50.810;8.342;2023-07-22T04:45:45;8.60;99.90
5806;DHT22;2929;50.810;8.342;2023-07-22T04:48:15;8.50;99.90
5806;DHT22;2929;50.810;8.342;2023-07-22T04:50:43;8.60;99.90
5806;DHT22;2929;50.810;8.342;2023-07-22T04:53:11;8.60;99.90
5806;DHT22;2929;50.810;8.342;2023-07-22T04:55:39;8.70;99.90
5806;DHT22;2929;50.810;8.342;2023-07-22T04:58:07;8.60;99.90
5806;DHT22;2929;50.810;8.342;2023-07-22T05:00:35;8.70;99.90
5806;DHT22;2929;50.810;8.342;2023-07-22T05:03:08;8.70;99.90
5806;DHT22;2929;50.810;8.342;2023-07-22T05:05:44;8.70;99.90
5806;DHT22;2929;50.810;8.342;2023-07-22T05:08:17;8.80;99.90
5806;DHT22;2929;50.810;8.342;2023-07-22T05:10:52;8.70;99.90
5806;DHT22;2929;50.810;8.342;2023-07-22T05:13:24;8.80;99.90
5806;DHT22;2929;50.810;8.342;2023-07-22T05:15:59;8.90;99.90
5806;DHT22;2929;50.810;8.342;2023-07-22T05:18:39;8.90;99.90
5806;DHT22;2929;50.810;8.342;2023-07-22T05:21:30;8.90;99.90
5806;DHT22;2929;50.810;8.342;2023-07-22T05:24:18;9.10;99.90
5806;DHT22;2929;50.810;8.342;2023-07-22T05:27:12;9.00;99.90
5806;DHT22;2929;50.810;8.342;2023-07-22T05:29:43;9.10;99.90
5806;DHT22;2929;50.810;8.342;2023-07-22T05:32:17;9.10;99.90
5806;DHT22;2929;50.810;8.342;2023-07-22T05:34:54;9.10;99.90
5806;DHT22;2929;50.810;8.342;2023-07-22T05:37:37;9.10;99.90
5806;DHT22;2929;50.810;8.342;2023-07-22T05:40:11;9.10;99.90
5806;DHT22;2929;50.810;8.342;2023-07-22T05:42:38;9.10;99.90
5806;DHT22;2929;50.810;8.342;2023-07-22T05:45:05;9.20;99.90
5806;DHT22;2929;50.810;8.342;2023-07-22T05:47:33;9.20;99.90
5806;DHT22;2929;50.810;8.342;2023-07-22T05:50:00;9.20;99.90
5806;DHT22;2929;50.810;8.342;2023-07-22T05:52:27;9.30;99.90
5806;DHT22;2929;50.810;8.342;2023-07-22T05:54:55;9.20;99.90
5806;DHT22;2929;50.810;8.342;2023-07-22T05:57:22;9.20;99.90
5806;DHT22;2929;50.810;8.342;2023-07-22T05:59:48;9.20;99.90
5806;DHT22;2929;50.810;8.342;2023-07-22T06:02:17;9.20;99.90
5806;DHT22;2929;50.810;8.342;2023-07-22T06:04:45;9.30;99.90
5806;DHT22;2929;50.810;8.342;2023-07-22T06:07:11;9.40;99.90
5806;DHT22;2929;50.810;8.342;2023-07-22T06:09:38;9.50;99.90
5806;DHT22;2929;50.810;8.342;2023-07-22T06:12:07;9.50;99.90
5806;DHT22;2929;50.810;8.342;2023-07-22T06:14:34;9.60;99.90
5806;DHT22;2929;50.810;8.342;2023-07-22T06:17:01;9.70;99.90
5806;DHT22;2929;50.810;8.342;2023-07-22T06:19:28;9.80;99.90
5806;DHT22;2929;50.810;8.342;2023-07-22T06:21:55;9.90;99.90
5806;DHT22;2929;50.810;8.342;2023-07-22T06:24:22;10.00;99.90
5806;DHT22;2929;50.810;8.342;2023-07-22T06:26:49;10.10;99.90
5806;DHT22;2929;50.810;8.342;2023-07-22T06:29:17;10.20;99.90
5806;DHT22;2929;50.810;8.342;2023-07-22T06:31:44;10.30;99.90
5806;DHT22;2929;50.810;8.342;2023-07-22T06:34:14;10.40;99.90
5806;DHT22;2929;50.810;8.342;2023-07-22T06:36:41;10.50;99.90
5806;DHT22;2929;50.810;8.342;2023-07-22T06:39:07;10.70;99.90
5806;DHT22;2929;50.810;8.342;2023-07-22T06:41:34;10.80;99.90
5806;DHT22;2929;50.810;8.342;2023-07-22T06:44:01;10.90;99.90
5806;DHT22;2929;50.810;8.342;2023-07-22T06:46:29;11.00;99.90
5806;DHT22;2929;50.810;8.342;2023-07-22T06:48:56;11.10;99.90
5806;DHT22;2929;50.810;8.342;2023-07-22T06:51:23;11.30;99.90
5806;DHT22;2929;50.810;8.342;2023-07-22T06:53:50;11.40;99.90
5806;DHT22;2929;50.810;8.342;2023-07-22T06:56:17;11.50;99.90
5806;DHT22;2929;50.810;8.342;2023-07-22T06:58:44;11.50;99.90
5806;DHT22;2929;50.810;8.342;2023-07-22T07:01:11;11.60;99.90
5806;DHT22;2929;50.810;8.342;2023-07-22T07:03:39;11.70;99.90
5806;DHT22;2929;50.810;8.342;2023-07-22T07:06:06;11.80;99.90
5806;DHT22;2929;50.810;8.342;2023-07-22T07:08:33;12.00;99.90
5806;DHT22;2929;50.810;8.342;2023-07-22T07:11:00;12.00;99.90
5806;DHT22;2929;50.810;8.342;2023-07-22T07:13:26;12.20;99.90
5806;DHT22;2929;50.810;8.342;2023-07-22T07:15:54;12.30;99.90
5806;DHT22;2929;50.810;8.342;2023-07-22T07:18:21;12.30;99.90
5806;DHT22;2929;50.810;8.342;2023-07-22T07:20:50;12.60;99.90
5806;DHT22;2929;50.810;8.342;2023-07-22T07:23:16;12.70;99.90
5806;DHT22;2929;50.810;8.342;2023-07-22T07:25:43;12.80;99.90
5806;DHT22;2929;50.810;8.342;2023-07-22T07:28:10;12.90;99.90
5806;DHT22;2929;50.810;8.342;2023-07-22T07:30:39;13.10;99.90
5806;DHT22;2929;50.810;8.342;2023-07-22T07:33:06;13.30;99.90
5806;DHT22;2929;50.810;8.342;2023-07-22T07:35:33;13.50;99.90
5806;DHT22;2929;50.810;8.342;2023-07-22T07:38:02;13.60;99.90
5806;DHT22;2929;50.810;8.342;2023-07-22T07:40:29;13.80;99.90
5806;DHT22;2929;50.810;8.342;2023-07-22T07:42:57;13.80;99.90
5806;DHT22;2929;50.810;8.342;2023-07-22T07:45:24;14.00;99.90
5806;DHT22;2929;50.810;8.342;2023-07-22T07:47:52;14.10;99.90
5806;DHT22;2929;50.810;8.342;2023-07-22T07:50:20;14.30;99.90
5806;DHT22;2929;50.810;8.342;2023-07-22T07:52:48;14.50;99.90
5806;DHT22;2929;50.810;8.342;2023-07-22T07:55:17;14.70;99.90
5806;DHT22;2929;50.810;8.342;2023-07-22T07:57:44;15.00;99.90
5806;DHT22;2929;50.810;8.342;2023-07-22T08:00:12;15.10;99.90
5806;DHT22;2929;50.810;8.342;2023-07-22T08:02:39;15.30;99.90
5806;DHT22;2929;50.810;8.342;2023-07-22T08:05:07;15.30;99.90
5806;DHT22;2929;50.810;8.342;2023-07-22T08:07:34;15.50;99.90
5806;DHT22;2929;50.810;8.342;2023-07-22T08:10:01;15.50;99.90
5806;DHT22;2929;50.810;8.342;2023-07-22T08:12:31;15.70;99.90
5806;DHT22;2929;50.810;8.342;2023-07-22T08:15:01;15.90;99.90
5806;DHT22;2929;50.810;8.342;2023-07-22T08:17:28;16.10;99.90
5806;DHT22;2929;50.810;8.342;2023-07-22T08:19:54;16.30;99.90
5806;DHT22;2929;50.810;8.342;2023-07-22T08:22:21;16.30;99.90
5806;DHT22;2929;50.810;8.342;2023-07-22T08:24:48;16.50;99.90
5806;DHT22;2929;50.810;8.342;2023-07-22T08:27:15;16.60;99.90
5806;DHT22;2929;50.810;8.342;2023-07-22T08:29:43;16.60;99.90
5806;DHT22;2929;50.810;8.342;2023-07-22T08:32:10;16.60;99.90
5806;DHT22;2929;50.810;8.342;2023-07-22T08:34:38;16.90;99.90
5806;DHT22;2929;50.810;8.342;2023-07-22T08:37:06;17.10;99.90
5806;DHT22;2929;50.810;8.342;2023-07-22T08:39:34;17.20;99.90
5806;DHT22;2929;50.810;8.342;2023-07-22T08:42:03;17.40;99.90
5806;DHT22;2929;50.810;8.342;2023-07-22T08:44:32;17.50;99.90
5806;DHT22;2929;50.810;8.342;2023-07-22T08:47:03;17.50;99.90
5806;DHT22;2929;50.810;8.342;2023-07-22T08:49:31;17.40;99.90
5806;DHT22;2929;50.810;8.342;2023-07-22T08:51:59;17.50;99.90
5806;DHT22;2929;50.810;8.342;2023-07-22T08:54:30;17.50;99.90
5806;DHT22;2929;50.810;8.342;2023-07-22T08:56:57;17.40;99.90
5806;DHT22;2929;50.810;8.342;2023-07-22T08:59:24;17.40;99.90
5806;DHT22;2929;50.810;8.342;2023-07-22T09:01:52;17.40;99.90
5806;DHT22;2929;50.810;8.342;2023-07-22T09:04:22;17.40;99.90
5806;DHT22;2929;50.810;8.342;2023-07-22T09:06:49;17.30;99.90
5806;DHT22;2929;50.810;8.342;2023-07-22T09:09:17;17.30;99.90
5806;DHT22;2929;50.810;8.342;2023-07-22T09:11:45;17.40;99.90
5806;DHT22;2929;50.810;8.342;2023-07-22T09:14:13;17.60;99.90
5806;DHT22;2929;50.810;8.342;2023-07-22T09:16:40;17.90;99.90
5806;DHT22;2929;50.810;8.342;2023-07-22T09:19:08;18.00;99.90
5806;DHT22;2929;50.810;8.342;2023-07-22T09:21:36;18.10;99.90
5806;DHT22;2929;50.810;8.342;2023-07-22T09:24:19;18.00;99.90
5806;DHT22;2929;50.810;8.342;2023-07-22T09:26:47;17.90;99.90
5806;DHT22;2929;50.810;8.342;2023-07-22T09:29:14;18.10;99.90
5806;DHT22;2929;50.810;8.342;2023-07-22T09:31:49;18.20;99.90
5806;DHT22;2929;50.810;8.342;2023-07-22T09:34:16;18.10;99.90
5806;DHT22;2929;50.810;8.342;2023-07-22T09:36:51;18.30;99.90
5806;DHT22;2929;50.810;8.342;2023-07-22T09:39:18;18.60;99.90
5806;DHT22;2929;50.810;8.342;2023-07-22T09:41:45;18.70;99.90
5806;DHT22;2929;50.810;8.342;2023-07-22T09:44:13;18.60;99.90
5806;DHT22;2929;50.810;8.342;2023-07-22T09:46:47;18.60;99.90
5806;DHT22;2929;50.810;8.342;2023-07-22T09:49:16;18.30;99.90
5806;DHT22;2929;50.810;8.342;2023-07-22T09:51:43;18.30;99.90
5806;DHT22;2929;50.810;8.342;2023-07-22T09:54:11;18.30;99.90
5806;DHT22;2929;50.810;8.342;2023-07-22T09:56:49;18.20;99.90
5806;DHT22;2929;50.810;8.342;2023-07-22T09:59:18;18.10;99.90
5806;DHT22;2929;50.810;8.342;2023-07-22T10:01:46;18.30;99.90
5806;DHT22;2929;50.810;8.342;2023-07-22T10:04:16;18.40;99.90
5806;DHT22;2929;50.810;8.342;2023-07-22T10:06:43;18.50;99.90
5806;DHT22;2929;50.810;8.342;2023-07-22T10:09:12;18.60;99.90
5806;DHT22;2929;50.810;8.342;2023-07-22T10:11:41;18.70;99.90
5806;DHT22;2929;50.810;8.342;2023-07-22T10:14:10;18.60;99.90
5806;DHT22;2929;50.810;8.342;2023-07-22T10:16:41;18.70;99.90
5806;DHT22;2929;50.810;8.342;2023-07-22T10:19:09;18.80;99.90
5806;DHT22;2929;50.810;8.342;2023-07-22T10:21:37;18.80;99.90
5806;DHT22;2929;50.810;8.342;2023-07-22T10:24:05;19.00;99.90
5806;DHT22;2929;50.810;8.342;2023-07-22T10:26:35;19.00;99.90
5806;DHT22;2929;50.810;8.342;2023-07-22T10:29:02;19.10;99.90
5806;DHT22;2929;50.810;8.342;2023-07-22T10:31:30;19.10;99.90
5806;DHT22;2929;50.810;8.342;2023-07-22T10:33:57;19.30;99.90
5806;DHT22;2929;50.810;8.342;2023-07-22T10:36:29;19.60;99.90
5806;DHT22;2929;50.810;8.342;2023-07-22T10:38:57;19.60;99.90
5806;DHT22;2929;50.810;8.342;2023-07-22T10:41:25;19.70;99.90
5806;DHT22;2929;50.810;8.342;2023-07-22T10:43:55;19.60;99.50
5806;DHT22;2929;50.810;8.342;2023-07-22T10:46:33;19.60;99.90
5806;DHT22;2929;50.810;8.342;2023-07-22T10:49:10;19.70;99.90
5806;DHT22;2929;50.810;8.342;2023-07-22T10:51:38;20.00;98.70
5806;DHT22;2929;50.810;8.342;2023-07-22T10:54:11;20.00;95.60
5806;DHT22;2929;50.810;8.342;2023-07-22T10:56:41;20.00;99.50
5806;DHT22;2929;50.810;8.342;2023-07-22T10:59:11;19.90;95.60
5806;DHT22;2929;50.810;8.342;2023-07-22T11:01:39;20.00;95.30
5806;DHT22;2929;50.810;8.342;2023-07-22T11:04:27;20.10;95.70
5806;DHT22;2929;50.810;8.342;2023-07-22T11:07:05;20.20;95.90
5806;DHT22;2929;50.810;8.342;2023-07-22T11:09:38;20.50;94.00
5806;DHT22;2929;50.810;8.342;2023-07-22T11:12:09;20.70;94.60
5806;DHT22;2929;50.810;8.342;2023-07-22T11:14:47;20.70;94.00
5806;DHT22;2929;50.810;8.342;2023-07-22T11:17:18;20.70;97.00
5806;DHT22;2929;50.810;8.342;2023-07-22T11:19:53;20.90;94.00
5806;DHT22;2929;50.810;8.342;2023-07-22T11:22:21;20.80;94.50
5806;DHT22;2929;50.810;8.342;2023-07-22T11:24:48;20.90;95.30
5806;DHT22;2929;50.810;8.342;2023-07-22T11:27:15;21.00;94.30
5806;DHT22;2929;50.810;8.342;2023-07-22T11:29:44;21.00;93.50
5806;DHT22;2929;50.810;8.342;2023-07-22T11:32:15;21.40;89.30
5806;DHT22;2929;50.810;8.342;2023-07-22T11:34:43;21.70;93.20
5806;DHT22;2929;50.810;8.342;2023-07-22T11:37:11;22.10;83.90
5806;DHT22;2929;50.810;8.342;2023-07-22T11:39:39;22.20;78.10
5806;DHT22;2929;50.810;8.342;2023-07-22T11:42:07;22.40;84.30
5806;DHT22;2929;50.810;8.342;2023-07-22T11:44:34;22.30;86.00
5806;DHT22;2929;50.810;8.342;2023-07-22T11:47:04;22.40;80.60
5806;DHT22;2929;50.810;8.342;2023-07-22T11:49:34;22.60;81.70
5806;DHT22;2929;50.810;8.342;2023-07-22T11:52:03;22.70;85.10
5806;DHT22;2929;50.810;8.342;2023-07-22T11:54:32;22.60;83.00
5806;DHT22;2929;50.810;8.342;2023-07-22T11:57:10;22.50;81.90
5806;DHT22;2929;50.810;8.342;2023-07-22T11:59:39;22.60;81.40
5806;DHT22;2929;50.810;8.342;2023-07-22T12:02:12;22.40;88.00
5806;DHT22;2929;50.810;8.342;2023-07-22T12:04:40;22.40;89.20
5806;DHT22;2929;50.810;8.342;2023-07-22T12:07:21;23.00;88.70
5806;DHT22;2929;50.810;8.342;2023-07-22T12:09:48;23.60;88.30
5806;DHT22;2929;50.810;8.342;2023-07-22T12:12:15;24.20;75.00
5806;DHT22;2929;50.810;8.342;2023-07-22T12:14:42;23.80;75.00
5806;DHT22;2929;50.810;8.342;2023-07-22T12:17:10;23.80;77.20
5806;DHT22;2929;50.810;8.342;2023-07-22T12:19:37;24.20;80.60
5806;DHT22;2929;50.810;8.342;2023-07-22T12:22:04;24.00;74.00
5806;DHT22;2929;50.810;8.342;2023-07-22T12:24:32;23.50;78.30
5806;DHT22;2929;50.810;8.342;2023-07-22T12:26:59;22.90;77.10
5806;DHT22;2929;50.810;8.342;2023-07-22T12:29:26;22.60;80.40
5806;DHT22;2929;50.810;8.342;2023-07-22T12:31:53;22.60;86.00
5806;DHT22;2929;50.810;8.342;2023-07-22T12:34:21;22.50;86.00
5806;DHT22;2929;50.810;8.342;2023-07-22T12:36:48;22.40;80.60
5806;DHT22;2929;50.810;8.342;2023-07-22T12:39:15;22.40;84.60
5806;DHT22;2929;50.810;8.342;2023-07-22T12:41:43;22.40;88.20
5806;DHT22;2929;50.810;8.342;2023-07-22T12:44:09;22.50;82.00
5806;DHT22;2929;50.810;8.342;2023-07-22T12:46:36;22.60;80.50
5806;DHT22;2929;50.810;8.342;2023-07-22T12:49:03;22.60;83.70
5806;DHT22;2929;50.810;8.342;2023-07-22T12:51:33;22.60;75.60
5806;DHT22;2929;50.810;8.342;2023-07-22T12:54:00;22.40;78.40
5806;DHT22;2929;50.810;8.342;2023-07-22T12:56:27;22.20;78.20
5806;DHT22;2929;50.810;8.342;2023-07-22T12:58:53;22.00;78.70
5806;DHT22;2929;50.810;8.342;2023-07-22T13:01:20;22.00;82.00
5806;DHT22;2929;50.810;8.342;2023-07-22T13:03:47;22.80;84.00
5806;DHT22;2929;50.810;8.342;2023-07-22T13:06:14;23.50;81.30
5806;DHT22;2929;50.810;8.342;2023-07-22T13:08:42;24.40;72.50
5806;DHT22;2929;50.810;8.342;2023-07-22T13:11:09;24.50;71.90
5806;DHT22;2929;50.810;8.342;2023-07-22T13:13:36;24.70;69.70
5806;DHT22;2929;50.810;8.342;2023-07-22T13:16:04;24.70;69.30
5806;DHT22;2929;50.810;8.342;2023-07-22T13:18:31;24.60;71.80
5806;DHT22;2929;50.810;8.342;2023-07-22T13:20:58;24.50;69.70
5806;DHT22;2929;50.810;8.342;2023-07-22T13:23:26;24.40;73.10
5806;DHT22;2929;50.810;8.342;2023-07-22T13:25:54;24.50;74.70
5806;DHT22;2929;50.810;8.342;2023-07-22T13:28:21;24.10;69.30
5806;DHT22;2929;50.810;8.342;2023-07-22T13:30:48;24.40;72.90
5806;DHT22;2929;50.810;8.342;2023-07-22T13:33:15;23.80;70.60
5806;DHT22;2929;50.810;8.342;2023-07-22T13:35:43;24.30;72.40
5806;DHT22;2929;50.810;8.342;2023-07-22T13:38:11;24.00;68.70
5806;DHT22;2929;50.810;8.342;2023-07-22T13:40:38;23.30;74.90
5806;DHT22;2929;50.810;8.342;2023-07-22T13:43:07;22.80;70.00
5806;DHT22;2929;50.810;8.342;2023-07-22T13:45:35;23.10;72.60
5806;DHT22;2929;50.810;8.342;2023-07-22T13:48:02;23.10;72.00
5806;DHT22;2929;50.810;8.342;2023-07-22T13:50:29;23.20;72.60
5806;DHT22;2929;50.810;8.342;2023-07-22T13:52:56;23.50;78.00
5806;DHT22;2929;50.810;8.342;2023-07-22T13:55:23;23.80;75.10
5806;DHT22;2929;50.810;8.342;2023-07-22T13:57:50;23.80;72.60
5806;DHT22;2929;50.810;8.342;2023-07-22T14:00:18;23.60;73.20
5806;DHT22;2929;50.810;8.342;2023-07-22T14:02:45;23.90;69.90
5806;DHT22;2929;50.810;8.342;2023-07-22T14:05:12;23.60;69.00
5806;DHT22;2929;50.810;8.342;2023-07-22T14:07:39;23.20;71.90
5806;DHT22;2929;50.810;8.342;2023-07-22T14:10:06;23.30;74.70
5806;DHT22;2929;50.810;8.342;2023-07-22T14:12:34;23.90;77.70
5806;DHT22;2929;50.810;8.342;2023-07-22T14:15:01;24.70;68.10
5806;DHT22;2929;50.810;8.342;2023-07-22T14:17:31;25.10;70.80
5806;DHT22;2929;50.810;8.342;2023-07-22T14:19:58;25.40;71.40
5806;DHT22;2929;50.810;8.342;2023-07-22T14:22:28;25.40;67.90
5806;DHT22;2929;50.810;8.342;2023-07-22T14:24:55;25.00;68.70
5806;DHT22;2929;50.810;8.342;2023-07-22T14:27:22;24.80;65.20
5806;DHT22;2929;50.810;8.342;2023-07-22T14:29:49;24.60;68.40
5806;DHT22;2929;50.810;8.342;2023-07-22T14:32:16;24.10;70.30
5806;DHT22;2929;50.810;8.342;2023-07-22T14:34:44;25.20;70.90
5806;DHT22;2929;50.810;8.342;2023-07-22T14:37:11;25.20;69.10
5806;DHT22;2929;50.810;8.342;2023-07-22T14:39:38;25.70;69.70
5806;DHT22;2929;50.810;8.342;2023-07-22T14:42:05;25.40;69.50
5806;DHT22;2929;50.810;8.342;2023-07-22T14:44:32;24.80;66.70
5806;DHT22;2929;50.810;8.342;2023-07-22T14:47:02;24.40;67.40
5806;DHT22;2929;50.810;8.342;2023-07-22T14:49:30;24.10;69.30
5806;DHT22;2929;50.810;8.342;2023-07-22T14:51:58;24.00;69.60
5806;DHT22;2929;50.810;8.342;2023-07-22T14:54:25;24.90;70.90
5806;DHT22;2929;50.810;8.342;2023-07-22T15:11:37;24.90;64.00
5806;DHT22;2929;50.810;8.342;2023-07-22T15:16:32;25.00;64.60
5806;DHT22;2929;50.810;8.342;2023-07-22T15:18:59;25.50;64.20
5806;DHT22;2929;50.810;8.342;2023-07-22T15:21:29;24.50;62.20
5806;DHT22;2929;50.810;8.342;2023-07-22T15:23:56;24.30;62.30
5806;DHT22;2929;50.810;8.342;2023-07-22T15:26:25;24.20;66.10
5806;DHT22;2929;50.810;8.342;2023-07-22T15:28:53;24.30;67.70
5806;DHT22;2929;50.810;8.342;2023-07-22T15:31:20;24.90;69.30
5806;DHT22;2929;50.810;8.342;2023-07-22T15:41:11;26.00;66.30
5806;DHT22;2929;50.810;8.342;2023-07-22T15:43:39;25.90;62.80
5806;DHT22;2929;50.810;8.342;2023-07-22T15:46:06;25.90;61.10
5806;DHT22;2929;50.810;8.342;2023-07-22T15:48:33;25.70;62.90
5806;DHT22;2929;50.810;8.342;2023-07-22T15:51:00;25.80;65.60
5806;DHT22;2929;50.810;8.342;2023-07-22T15:53:27;25.10;63.70
5806;DHT22;2929;50.810;8.342;2023-07-22T15:55:54;24.90;63.60
5806;DHT22;2929;50.810;8.342;2023-07-22T15:58:21;24.90;63.30
5806;DHT22;2929;50.810;8.342;2023-07-22T16:00:50;25.30;63.70
5806;DHT22;2929;50.810;8.342;2023-07-22T16:03:17;25.70;65.50
5806;DHT22;2929;50.810;8.342;2023-07-22T16:05:44;25.60;61.50
5806;DHT22;2929;50.810;8.342;2023-07-22T16:08:11;25.30;63.60
5806;DHT22;2929;50.810;8.342;2023-07-22T16:10:38;25.60;61.10
5806;DHT22;2929;50.810;8.342;2023-07-22T16:13:05;25.60;62.90
5806;DHT22;2929;50.810;8.342;2023-07-22T16:15:32;25.70;64.10
5806;DHT22;2929;50.810;8.342;2023-07-22T16:18:00;25.70;59.70
5806;DHT22;2929;50.810;8.342;2023-07-22T16:20:28;25.40;61.40
5806;DHT22;2929;50.810;8.342;2023-07-22T16:22:55;25.50;62.80
5806;DHT22;2929;50.810;8.342;2023-07-22T16:25:22;25.50;64.70
5806;DHT22;2929;50.810;8.342;2023-07-22T16:27:49;25.00;65.30
5806;DHT22;2929;50.810;8.342;2023-07-22T16:30:16;24.60;65.50
5806;DHT22;2929;50.810;8.342;2023-07-22T16:32:43;24.50;65.70
5806;DHT22;2929;50.810;8.342;2023-07-22T16:35:11;24.60;66.60
5806;DHT22;2929;50.810;8.342;2023-07-22T16:37:39;24.60;62.50